Latest Weather Observations for Mareeba

IDQ60801

Issued at 2:22 pm EST Thursday 28 May 2020 (issued every 10 minutes, with the page automatically refreshed every 10 minutes)

About weather observations | Map of weather stations | Latest weather observations for QLD | Other Formats
Station Details ID: 031210 Name: MAREEBA AIRPORT Lat: -17.07 Lon: 145.43 Height: 471.93 m
Data from the previous 72 hours. | See also: Recent months at Mareeba
Date/Time
EST
Temp
°C
App
Temp
°C
Dew
Point
°C
Rel
Hum
%
Delta-T
°C
Wind Press
QNH
hPa
Press
MSL
hPa
Rain since
9am
mm
Dir  Spd
km/h
Gust
km/h
Spd
kts
Gust
kts
28/02:00pm 24.7 23.9 10.9 42 7.9 SSE 6 9 3 5 1017.6 1015.2 0.0
28/01:30pm 25.3 24.8 12.2 44 7.7 E 6 11 3 6 1017.7 1015.3 0.0
28/01:00pm 23.9 23.4 11.9 47 6.9 E 6 15 3 8 1018.3 1016.0 0.0
28/12:30pm 23.8 23.2 13.4 52 6.2 ESE 9 15 5 8 1018.8 1016.5 0.0
28/12:00pm 22.6 21.8 12.8 54 5.7 S 9 15 5 8 1019.3 1017.0 0.0
28/11:30am 21.8 21.6 12.9 57 5.2 ENE 6 17 3 9 1019.8 1017.5 0.0
28/11:00am 21.5 21.7 13.2 59 4.8 SSE 4 15 2 8 1020.4 1018.1 0.0
28/10:30am 20.5 18.5 12.7 61 4.5 SE 15 19 8 10 1020.8 1018.5 0.0
28/10:00am 20.3 19.3 13.3 64 4.1 SSE 11 19 6 10 1021.0 1018.7 0.0
28/09:30am 19.4 18.9 13.8 70 3.3 E 9 15 5 8 1021.1 1018.8 0.0
28/09:00am 18.3 15.8 13.4 73 2.8 SE 19 28 10 15 1020.9 1018.6 0.0
28/08:30am 17.4 15.7 13.5 78 2.3 SSE 15 26 8 14 1020.8 1018.5 0.0
28/08:00am 15.9 14.2 12.5 80 1.9 SE 13 17 7 9 1020.6 1018.3 0.0
28/07:30am 14.5 13.5 12.2 86 1.3 ENE 9 11 5 6 1020.3 1018.0 0.0
28/07:00am 12.9 12.7 11.8 93 0.6 SSE 4 7 2 4 1020.0 1017.7 0.0
28/06:30am 13.0 11.6 12.1 94 0.5 SSE 11 13 6 7 1019.6 1017.3 0.0
28/06:00am 12.8 11.6 11.7 93 0.6 ESE 9 11 5 6 1019.3 1017.0 0.0
28/05:30am 13.2 12.3 11.4 89 1.0 ESE 7 9 4 5 1019.1 1016.8 0.0
28/05:00am 15.0 13.1 13.0 88 1.1 SE 15 20 8 11 1018.9 1016.6 0.0
28/04:30am 14.6 12.3 13.0 90 0.9 SSE 17 22 9 12 1018.8 1016.5 0.0
28/04:00am 14.2 12.3 12.9 92 0.7 SSE 15 19 8 10 1018.7 1016.4 0.0
28/03:30am 14.4 11.7 13.0 91 0.8 SE 19 26 10 14 1018.9 1016.6 0.0
28/03:00am 14.2 11.5 12.8 91 0.8 SSE 19 24 10 13 1018.8 1016.5 0.0
28/02:30am 14.2 12.1 12.4 89 1.0 SSE 15 20 8 11 1019.2 1016.9 0.0
28/02:00am 14.5 12.4 12.5 88 1.1 SSE 15 22 8 12 1019.3 1017.0 0.0
28/01:30am 14.7 12.3 12.7 88 1.1 SE 17 22 9 12 1019.5 1017.2 0.0
28/01:00am 13.8 11.2 12.0 89 1.0 SE 17 20 9 11 1019.9 1017.6 0.0
28/12:30am 13.7 11.1 11.9 89 1.0 SSE 17 24 9 13 1020.1 1017.8 0.0
28/12:00am 14.2 10.6 11.7 85 1.4 SSE 22 30 12 16 1020.1 1017.8 0.0
 
Date/Time
EST
Temp
°C
App
Temp
°C
Dew
Point
°C
Rel
Hum
%
Delta-T
°C
Wind Press
QNH
hPa
Press
MSL
hPa
Rain since
9am
mm
Dir  Spd
km/h
Gust
km/h
Spd
kts
Gust
kts
27/11:30pm 14.6 11.0 11.7 83 1.6 SSE 22 30 12 16 1020.2 1017.9 0.0
27/11:00pm 14.8 11.6 11.8 82 1.7 SSE 20 26 11 14 1020.2 1017.9 0.0
27/10:30pm 15.1 12.1 12.1 82 1.7 SSE 19 26 10 14 1020.5 1018.2 0.0
27/10:00pm 15.2 13.1 12.5 84 1.5 SSE 15 20 8 11 1020.7 1018.4 0.0
27/09:30pm 15.4 13.0 12.5 83 1.6 SSE 17 20 9 11 1020.5 1018.2 0.0
27/09:00pm 15.6 13.2 12.5 82 1.7 SSE 17 22 9 12 1020.5 1018.2 0.0
27/08:30pm 16.1 13.7 12.8 81 1.9 SSE 17 20 9 11 1020.4 1018.1 0.0
27/08:00pm 16.4 14.5 13.1 81 1.9 SSE 15 19 8 10 1020.2 1017.9 0.0
27/07:30pm 16.8 15.9 13.7 82 1.8 SSW 11 15 6 8 1020.0 1017.7 0.0
27/07:00pm 17.5 17.3 13.0 75 2.6 N 6 9 3 5 1019.4 1017.1 0.0
27/06:30pm 17.5 17.2 12.8 74 2.7 N 6 9 3 5 1018.9 1016.6 0.0
27/06:00pm 18.8 18.9 12.8 68 3.4 N 4 7 2 4 1018.7 1016.4 0.0
27/05:30pm 20.1 18.4 12.6 62 4.3 NE 13 20 7 11 1018.2 1015.9 0.0
27/05:00pm 21.5 20.1 13.4 60 4.8 NE 13 20 7 11 1017.5 1015.1 0.0
27/04:30pm 23.0 21.6 13.5 55 5.6 NE 13 20 7 11 1017.2 1014.9 0.0
27/04:00pm 24.8 22.8 8.7 36 8.9 NNE 9 15 5 8 1017.3 1015.0 0.0
27/03:30pm 24.7 23.0 8.2 35 9.0 SE 7 13 4 7 1017.5 1015.1 0.0
27/03:00pm 25.0 23.8 8.1 34 9.2 NE 4 11 2 6 1017.6 1015.2 0.0
27/02:30pm 24.3 22.5 7.9 35 8.9 WNW 7 13 4 7 1017.8 1015.4 0.0
27/02:00pm 24.3 22.9 8.7 37 8.6 ENE 6 13 3 7 1018.2 1015.9 0.0
27/01:30pm 23.9 21.7 7.9 36 8.6 NNE 9 15 5 8 1018.6 1016.3 0.0
27/01:00pm 23.1 21.6 9.1 41 7.7 SSE 7 11 4 6 1019.0 1016.7 0.0
27/12:30pm 22.1 20.3 9.3 44 7.0 ENE 9 15 5 8 1019.5 1017.2 0.0
27/12:00pm 22.4 21.0 9.6 44 7.1 E 7 11 4 6 1020.1 1017.8 0.0
27/11:30am 21.8 21.1 10.0 47 6.5 ENE 4 11 2 6 1020.3 1018.0 0.0
27/11:00am 20.8 19.7 10.6 52 5.7 SSE 7 13 4 7 1020.7 1018.4 0.0
27/10:30am 19.7 18.5 10.4 55 5.1 NW 7 11 4 6 1020.9 1018.6 0.0
27/10:00am 18.8 17.7 10.1 57 4.7 SE 6 11 3 6 1021.0 1018.7 0.0
27/09:30am 17.8 16.6 9.7 59 4.4 SE 6 9 3 5 1021.3 1019.0 0.0
27/09:00am 16.5 14.7 11.0 70 3.0 SSE 11 15 6 8 1021.0 1018.7 0.0
27/08:30am 15.3 12.9 11.3 77 2.2 SE 15 20 8 11 1020.7 1018.4 0.0
27/08:00am 14.2 12.2 11.4 83 1.5 SSE 13 15 7 8 1020.6 1018.3 0.0
27/07:30am 12.8 11.0 10.7 87 1.1 SE 11 17 6 9 1020.3 1018.0 0.0
27/07:00am 11.5 9.1 10.2 92 0.7 SE 13 15 7 8 1019.9 1017.6 0.0
27/06:30am 11.3 8.9 10.0 92 0.7 SE 13 17 7 9 1019.8 1017.5 0.0
27/06:00am 11.4 9.1 10.3 93 0.6 SE 13 15 7 8 1019.5 1017.2 0.0
27/05:30am 11.2 10.0 10.3 94 0.5 SE 7 11 4 6 1019.3 1017.0 0.0
27/05:00am 11.6 10.0 10.3 92 0.7 SSE 9 13 5 7 1019.2 1016.9 0.0
27/04:30am 12.2 9.2 10.8 91 0.7 SSE 17 20 9 11 1019.2 1016.9 0.0
27/04:00am 12.2 10.0 10.8 91 0.7 SE 13 17 7 9 1019.3 1017.0 0.0
27/03:30am 12.4 10.6 10.8 90 0.9 SE 11 17 6 9 1019.5 1017.2 0.0
27/03:00am 12.5 10.3 10.7 89 1.0 SE 13 17 7 9 1019.6 1017.3 0.0
27/02:30am 12.4 10.1 10.6 89 1.0 SSE 13 15 7 8 1019.8 1017.5 0.0
27/02:00am 12.7 10.6 11.1 90 0.9 SSE 13 17 7 9 1020.1 1017.8 0.0
27/01:30am 13.0 11.3 11.2 89 1.0 SSE 11 17 6 9 1020.3 1018.0 0.0
27/01:00am 13.0 10.9 11.2 89 1.0 SSE 13 19 7 10 1020.3 1018.0 0.0
27/12:30am 13.1 11.0 11.2 88 1.0 SE 13 17 7 9 1020.5 1018.2 0.0
27/12:00am 13.3 11.3 11.4 88 1.0 SE 13 17 7 9 1020.5 1018.2 0.0
 
Date/Time
EST
Temp
°C
App
Temp
°C
Dew
Point
°C
Rel
Hum
%
Delta-T
°C
Wind Press
QNH
hPa
Press
MSL
hPa
Rain since
9am
mm
Dir  Spd
km/h
Gust
km/h
Spd
kts
Gust
kts
26/11:30pm 13.8 11.5 11.8 88 1.1 SE 15 20 8 11 1020.7 1018.4 0.0
26/11:00pm 13.7 11.4 11.9 89 1.0 SE 15 19 8 10 1021.0 1018.7 0.0
26/10:30pm 13.9 12.4 11.9 88 1.1 SE 11 13 6 7 1021.0 1018.7 0.0
26/10:00pm 14.7 13.0 12.6 87 1.2 SE 13 19 7 10 1020.9 1018.6 0.0
26/09:30pm 14.6 13.8 12.8 89 1.0 SSE 9 13 5 7 1020.8 1018.5 0.0
26/09:00pm 13.8 14.0 12.0 89 1.0 N 2 7 1 4 1020.6 1018.3 0.0
26/08:30pm 14.0 14.6 11.9 87 1.2 CALM 0 0 0 0 1020.4 1018.1 0.0
26/08:00pm 15.0 14.4 12.3 84 1.5 N 7 7 4 4 1020.1 1017.8 0.0
26/07:30pm 15.1 14.1 12.2 83 1.6 N 9 9 5 5 1019.9 1017.6 0.0
26/07:00pm 16.5 17.3 12.7 78 2.1 CALM 0 0 0 0 1019.6 1017.3 0.0
26/06:30pm 16.9 16.4 12.0 73 2.7 N 6 9 3 5 1019.2 1016.9 0.0
26/06:00pm 17.6 16.5 12.1 70 3.1 NNE 9 13 5 7 1018.9 1016.6 0.0
26/05:30pm 18.8 17.0 12.1 65 3.8 NNE 13 20 7 11 1018.4 1016.1 0.0
26/05:00pm 20.0 18.2 12.0 60 4.5 NNE 13 20 7 11 1018.1 1015.8 0.0
26/04:30pm 21.0 19.1 11.9 56 5.2 NE 13 20 7 11 1017.7 1015.3 0.0
26/04:00pm 21.7 18.8 11.1 51 6.0 NNE 17 26 9 14 1017.3 1015.0 0.0
26/03:30pm 22.7 21.0 11.1 48 6.6 NE 11 19 6 10 1017.5 1015.1 0.0
26/03:00pm 23.0 21.0 10.1 44 7.2 N 11 19 6 10 1017.6 1015.2 0.0
26/02:30pm 23.0 20.6 10.1 44 7.2 NNE 13 19 7 10 1017.7 1015.3 0.0
26/02:00pm 23.3 21.0 10.4 44 7.2 NE 13 20 7 11 1018.0 1015.7 0.0
26/01:30pm 23.1 21.2 9.1 41 7.7 N 9 17 5 9 1018.3 1016.0 0.0
26/01:00pm 23.2 21.6 10.3 44 7.2 NE 9 15 5 8 1018.7 1016.4 0.0
26/12:30pm 22.1 20.0 9.9 46 6.8 NNE 11 17 6 9 1019.1 1016.8 0.0
26/12:00pm 21.6 20.2 8.8 44 6.9 E 6 11 3 6 1019.6 1017.3 0.0
26/11:30am 21.1 19.8 10.0 49 6.1 ESE 7 13 4 7 1020.2 1017.9 0.0
26/11:00am 20.5 18.8 10.0 51 5.8 ESE 9 17 5 9 1020.5 1018.2 0.0
26/10:30am 19.6 18.3 10.0 54 5.3 E 7 11 4 6 1021.0 1018.7 0.0
26/10:00am 18.8 17.7 9.8 56 4.9 NE 6 11 3 6 1021.3 1019.0 0.0
26/09:30am 17.6 15.2 10.2 62 4.0 SSE 13 17 7 9 1021.4 1019.1 0.0
26/09:00am 16.8 13.5 10.9 68 3.2 SSE 19 24 10 13 1021.1 1018.8 0.0
26/08:30am 15.0 11.4 9.8 71 2.8 SSE 19 26 10 14 1020.9 1018.6 0.0
26/08:00am 13.6 9.9 9.3 75 2.2 SSE 19 26 10 14 1020.6 1018.3 0.0
26/07:30am 12.6 8.6 9.1 79 1.8 SSE 20 28 11 15 1020.3 1018.0 0.0
26/07:00am 10.7 7.6 8.8 88 1.0 SSE 15 20 8 11 1020.1 1017.8 0.0
26/06:30am 10.9 7.5 9.0 88 1.0 SSE 17 24 9 13 1019.9 1017.6 0.0
26/06:00am 10.6 8.0 9.2 91 0.7 SSE 13 15 7 8 1019.5 1017.2 0.0
26/05:30am 10.6 7.9 9.0 90 0.8 SSE 13 17 7 9 1019.3 1017.0 0.0
26/05:00am 10.8 8.2 9.2 90 0.8 SSE 13 19 7 10 1019.2 1016.9 0.0
26/04:30am 10.8 8.1 9.1 89 0.9 SSE 13 19 7 10 1018.9 1016.6 0.0
26/04:00am 11.0 8.3 9.1 88 1.0 SSE 13 15 7 8 1018.9 1016.6 0.0
26/03:30am 11.1 8.4 8.8 86 1.2 SE 13 15 7 8 1018.7 1016.4 0.0
26/03:00am 11.2 8.5 9.1 87 1.1 SSE 13 19 7 10 1018.8 1016.5 0.0
26/02:30am 10.9 8.9 8.8 87 1.1 SE 9 13 5 7 1019.0 1016.7 0.0
26/02:00am 11.2 8.6 9.3 88 1.0 SSE 13 17 7 9 1019.2 1016.9 0.0
26/01:30am 11.3 9.1 9.4 88 1.0 SSE 11 13 6 7 1019.5 1017.2 0.0
26/01:00am 11.5 8.5 9.4 87 1.1 SSE 15 19 8 10 1019.5 1017.2 0.0
26/12:30am 11.8 9.2 9.5 86 1.2 SSE 13 17 7 9 1019.4 1017.1 0.0
26/12:00am 12.1 9.6 9.7 85 1.2 SE 13 19 7 10 1019.8 1017.5 0.0
 
Date/Time
EST
Temp
°C
App
Temp
°C
Dew
Point
°C
Rel
Hum
%
Delta-T
°C
Wind Press
QNH
hPa
Press
MSL
hPa
Rain since
9am
mm
Dir  Spd
km/h
Gust
km/h
Spd
kts
Gust
kts
25/11:30pm 12.2 10.1 9.6 84 1.4 SE 11 15 6 8 1020.0 1017.7 0.0
25/11:00pm 12.5 10.1 9.9 84 1.4 SSE 13 17 7 9 1020.0 1017.7 0.0
25/10:30pm 12.8 10.1 10.2 84 1.4 SSE 15 19 8 10 1020.1 1017.8 0.0
25/10:00pm 12.9 10.6 10.3 84 1.4 SSE 13 17 7 9 1020.1 1017.8 0.0
25/09:30pm 12.9 11.3 10.1 83 1.5 SSE 9 11 5 6 1019.9 1017.6 0.0
25/09:00pm 13.2 11.7 10.6 84 1.4 S 9 13 5 7 1019.8 1017.5 0.0
25/08:30pm 13.4 11.2 10.9 85 1.3 S 13 17 7 9 1019.6 1017.3 0.0
25/08:00pm 13.1 12.0 10.8 86 1.2 NNE 7 11 4 6 1019.4 1017.1 0.0
25/07:30pm 13.6 13.9 10.8 83 1.5 CALM 0 0 0 0 1019.0 1016.7 0.0
25/07:00pm 15.2 15.4 10.6 74 2.5 CALM 0 6 0 3 1018.6 1016.3 0.0
25/06:30pm 16.3 15.2 10.6 69 3.1 E 7 9 4 5 1018.3 1016.0 0.0
25/06:00pm 16.8 14.9 10.6 67 3.4 NNE 11 17 6 9 1017.6 1015.2 0.0
25/05:30pm 18.2 16.0 10.8 62 4.1 NNE 13 20 7 11 1017.1 1014.8 0.0
25/05:00pm 19.7 17.2 10.9 57 4.9 NNE 15 22 8 12 1016.6 1014.3 0.0
25/04:30pm 21.5 19.6 10.6 50 6.1 NE 11 20 6 11 1016.2 1013.9 0.0
25/04:00pm 22.7 21.0 6.0 34 8.6 SSE 4 11 2 6 1015.9 1013.5 0.0
25/03:30pm 23.2 21.3 6.5 34 8.8 NW 6 15 3 8 1016.1 1013.8 0.0
25/03:00pm 22.2 21.0 6.4 36 8.2 ESE 2 9 1 5 1016.3 1014.0 0.0
25/02:30pm 22.1 19.7 7.1 38 7.9 NNW 9 15 5 8 1016.6 1014.3 0.0

Other formats

Comma delimited format used in spreadsheet applications
http://www.bom.gov.au/fwo/IDQ60801/IDQ60801.95286.axf

JavaScript Object Notation format (JSON) in row-major order
http://www.bom.gov.au/fwo/IDQ60801/IDQ60801.95286.json

Data quality

Most of these data are generated automatically and are frequently updated. Quality checks on data are not normally performed. It is possible for incorrect values to appear. Refer to information at About Latest Weather Observations and please check the disclaimer before using these data.